空の公差-Tolerance-

航空写真家 瀬尾 央(せお ひろし)氏による月刊「航空ファン」の連載記事、『 Light & Flight 』に中学生の頃出会い、触発され、写真撮影とプロペラ単発機での飛行を趣味として、空の写真、空からの写真を撮り続けています。 2004年には自費出版の写真集「空の公差-Tolerance-」(エアワークス刊,ISBN9784902113037)を作りました。

米国出張

往路はスターウォーズジェットでした。
機内はいたってノーマル、キティジェットのように
徹底されているわけでもないしシートのヘッドカバー
と機内食の紙コップと機内放送で出発時と着陸前に
ロボットの声で短いアナウンスが入るくらいでした。

地上で機内で流れている音楽がスターウォーズの
テーマになっていて精神的にざわざわします。心拍
数が上がるような音楽を離陸前に流さないでよ、と
思いました。ファンの方ごめんなさい。

でも、乗る便が遅れてばかりのANAなのに定刻より
少し早く到着したのは実はフォースのおかげなのか
もしれませんね。

20180516DSCN8874ANAサンノゼB787スターウォーズSM
似合ってるのか非常に微妙なデザインです

20180516DSCN8915スターウォーズジェットカードSM
CAがカードをくれました

A36ボナンザで松本へ

桶川 → RJAF 1000-1041 (0+41) BE-A36
RJAF LCL    1300-1320 (0+20) BE-A36
RJAF→ 桶川  1330-1405 (0+35) BE-A36

Kさんにお誘い頂いてA36で松本へ行ってきました。
風も穏やか。復路が少し追い風気味で対地速度が
170ノットありました。GPSを見ると平均時速は往路
が140ノット、復路が155ノットでした。

松本ではジェットヘリが4機も並び、ほぼ同じ時刻に
全機出発。ローカルで飛ぶタイミングと重なりました。

Kさんのご厚意で松本でタッチアンドゴーをやらせて
もらい、A36にだいぶ慣れることが出来ました。
ありがとうございました。
ヘリもカッコいい…と改めて思いました。



20180512P1015712JA3576SM
松本盆地へ進入

20180512DSCN8855JA3576松本SM
高層雲はありますが飛行日和です

20180512JA220EJA11CJJA6061JA9474DSCN8842SM
ヘリ4機のうちジェットレンジャー(しかもB型)が2機


RJAF 110500Z 16008KT 120V190 CAVOK 23/03 Q1015
RJAF 110400Z 14008KT 090V180 CAVOK 22/03 Q1016
RJAF 110300Z 16010KT 110V180 CAVOK 21/M00 Q1017
RJAF 110200Z 08007KT 360V140 CAVOK 19/01 Q101

RJTJ 120500Z 18006KT 120V220 9999 FEW030
BKN200 25/10 Q1013 RMK 1CU030 A2994=

帰国しました

あっという間に帰国です。
成田から会社へ直行。この日程だと会社で仕事を
しない日が1日になり、仕事がたまるのを最小限
にできます。復路もサンリオジェットでした。


20180510DSCN8831桃園サンリオジェットSM
この機体も機内は普通です

食後のミルクティー

台湾ではたいてい夕食後にミルクティーを買って
少し散歩します。今回はちびまる子ちゃん(一芳)と
ワンピース(清心福全)です。一芳は今年日本に進出
しているようです。清心福全1月はキティだったので
もしかしたらいろいろ変わるのかも。
日本語のHPもあります。


20180508DSCN8816一芳ちびまる子SM
パイナップル入りのお茶にしました

20180509DSCN8828清心福全ワンピースSM
普通のミルクティーにしました

台湾出張

今年二度目の台湾出張です。
初めてのサンリオジェットでした。
キティジェットは搭乗券から機内までキティ一色
でした。サンリオジェットは搭乗券は通常のもので、
機内はどうかと思って搭乗。残念ながら機内も普通
でした。

台湾の入国審査はこれまでで一番空いていました。
いつもこうならいいのに・・・。

20180508DSCN8811成田サンリオジェットSM
午後2時過ぎの便なので午前中仕事してから成田へ…

E33ボナンザを八尾にフェリー

桶川 → RJOY 0950-1130 (1+40) E33
RJOY → 桶川  1413-1543 (1+30) BE-A36

Rさんのボナンザを整備のため八尾へ運びました。
復路は新幹線で、と思っていたところ、なんとKさんが
来てくれる、ということで往復飛行機になりました。

天候には何の心配もない絶好の飛行日和です。
連休で飛行日和ということでエアロスバルは鳥取、
マリブ
2機は宮古島へ行くそうです。

800hpや750hpの風は北もしくはやや西よりで15から
20KT
という予報です。GPSによればダイレクトコース
は255°なので
ほんの少し追い風か西風成分があれば
真横の風といった
感じでしょうか。それなら気分もいいし、
燃費も多少良くなる
ので10,500ftまで上がることにします。

離陸後は甲府、豊田、津とほぼダイレクトコースにして
計画通り10,500ftで巡航。そんなに飛ばさない設定で
12gphにしても対地速度は145-150KTでました。TASも
150KTなので数ノットの向かい風があるかどうか、という
感じでしょうか。


伊勢湾で風が変わったのか一時的に対地速度が130KT
くらいに
なりましたが、奈良で写真撮影したいところに寄り
道しても
平均時速140KT。A36もほぼ同じ飛行時間でした。

Kさん、Iさんありがとうございました。

連休前半は天候も良さそうで、どこか遠くへ飛んでいきた
い気分です。


20180428DSCN8765JA3446SM
久々に一人でクロカンします

20180428DSCN8761マリブとTBMSM
左のマリブ(350)とSさんのマリブ(310)が沖縄へ、右はTBM

20180428P1015687JA3446桶川SM
エアロスバル、A36の後に離陸

20180428P1015702JA3446アルプス越えSM
南アルプス越え

20180428DSC_0482SM
奈良では少し寄り道して写真を撮りました

20180428DSCN8773RJOYショップSM
八尾のパイロットショップでハンガートーク

20180428P1015705復路SM
復路は海沿いコース


RJOY 280500Z 27006KT 210V320 CAVOK 22/08 Q1015
RJOY 280400Z VRB03KT CAVOK 22/04 Q1015
RJOY 280300Z VRB04KT CAVOK 21/06 Q1016
RJOY 280200Z VRB04KT CAVOK 19/07 Q1016
RJOY 280100Z 31005KT 220V350 CAVOK 18/07 Q1017

RJTY 280556Z AUTO 18015G23KT 10SM CLR 23/09
A2993 RMK AO2 SLP136 T02250086 10249 20211 55000
FZRANO $
RJTY 280456Z AUTO 19015G21KT 10SM CLR 24/09
A2993 RMK AO2 SLP135 T02370093 FZRANO $
RJTY 280356Z AUTO 19008G16KT 10SM CLR 25/04
A2992 RMK AO2 SLP132 T02490041 FZRANO $
RJTY 280256Z AUTO 18003KT 10SM CLR 24/04
A2993 RMK AO2 SLP135 T02400038 58006 FZRANO $
RJTY 280156Z AUTO 31003KT 10SM CLR 23/02
A2995 RMK AO2 SLP142 T02340017 FZRANO $
RJTY 280056Z AUTO 06008KT 10SM CLR 23/05
A2995 RMK AO2 SLP142 T02270047 FZRANO $

E33ボナンザでローカル飛行

桶川 LCL     1225-1308 (0+43)  BE33

普段は36ボナンザを飛ばしているKさんがE33を見て
みたいというのでお会いして、その後、せっかく飛行場
に来たのだから、と少し飛びました。

暖かいのを通り越して汗ばむくらいの飛行日和です。
松本辺りの近場に行っても良かったのかもしれません。

20180421P1015681JA3446SM
快晴に見えます・・・でも3,000ftくらいまでもやもやでした

METAR RJTJ 2100400Z 16007KT 130V210 9999 NSC
27/09 Q1018 RMK A3007=





E33ボナンザでローカル飛行

桶川 LCL     1551-1610 (0+19)  BE33
桶川 LCL     1701-1725 (0+24)  BE33

午後から天候が回復するということで、少し駆け足気味
ではありましたがNさんの特定技能審査とローカル遊覧
飛行をしてきました。

20180415P1015678JA34461SM
シーリングは3,000ftくらいでしょうか

RJTT 150800Z 19007KT 9999 FEW020 BKN050 BKN///
20/15 Q0997 BECMG TL0930 05008KT RMK 1CU020
6SC050 A2944
RJTT 150730Z 17010KT 9999 FEW030 BKN050 19/15
Q0996 BECMG 08008KT
RJTT 150700Z 19007KT 150V220 9999 FEW015 SCT030
BKN050 20/16 Q0996 BECMG 02008KT RMK 1CU015
3SC030 6SC050 A2942


戻りました

今回は体調が悪く帰りの機内で倒れるかと思いました。
寝不足と肩こりで気持ちが悪いし、何度も足がつるの
で機内食も食べずひたすらじっとしていました。

20180413DSCN8739サンノゼANAB787SM
さて11時間の修行です

20180414DSCN8743機内SM
あと3時間。毎度ここからが長いです

 

米国出張

毎度のサンノゼ出張です。
出発時の成田は春の嵐で出発が少し遅れました。
期待したほど?の揺れもなくすぐ眠れました。

20180411DSCN8718成田ANAB787SM
歩く距離がすごい長い58Aから出発です

20180411DSCN8724サンノゼANAB787SM
サンノゼ着

日帰り大阪出張

どっとつかれました。翌日は東北新幹線で出張です。

20180409DSCN8704浜名湖SM
浜名湖付近で日没

20180409DSCN8705東京駅SM
東京駅。新幹線も疲れているように見えます


浅間山

温泉に入りに1泊2日で北軽井沢へ行ってきました。
オフシーズンのようでゆっくりできました。

6日の気温は11℃ほど。7日の朝は2℃で窓の外の
浅間山はうっすら雪化粧しています。

20180406DSC_0458浅間山SM
6日の午後です

20180408DSC_0461浅間山SM
7日の朝。この後、小雪が舞ってきました

もんじゃ船に乗り隅田川で花見

恒例になりつつあるもんじゃ船花見ツアーでした。
割と風が強くて海コースが川コースのスカイツリー
まで行くコースになりました。
1年ぶりにお会いする方もいて話が弾みました。

幹事のSさんありがとうございました。

20180406DSCN8696花見クルーズSM
スカイツリーの頂上は雲の中です

RJTT 061330Z 20024KT 9999 -SHRA FEW010 BKN015
20/17 Q1000 TEMPO 20034G44KT FEW008 BKN012
RMK 1CU010 7CU015 A2953
RJTT 061300Z 20025G37KT 9999 FEW010 BKN015
BKN025 20/17 Q1000 TEMPO FEW008 BKN012
RMK 1CU010 5CU015 7CU025 A2955
RJTT 061230Z 21029G43KT 9999 FEW010 BKN015
BKN025 20/17 Q1000 TEMPO FEW008 BKN012
RJTT 061200Z 21027G42KT 9999 FEW010 BKN015
BKN025 19/17 Q1000 WS R22 TEMPO FEW008
BKN012 RMK 1CU010 5CU015 7CU025 A2955
RJTT 061130Z 20023G38KT 9999 FEW010 BKN015
BKN025 19/17 Q1001 TEMPO 20034G44KT FEW008
BKN012
RJTT 061100Z 20028G47KT 9999 FEW010 BKN015
BKN045 19/17 Q1001 TEMPO FEW008 BKN014

ここはドコ?日帰り長野出張

長野へ日帰り出張でした。
長野駅からローカル線に乗ります。
乗る電車がロマンスカーでびっくり。
他に東急や成田エクスプレスがいてさらにビックリ。

長野新幹線のおかげで午後4時には会社に戻り仕事
です。新幹線速すぎ…。

20180403DSCN8675長野駅地下ホームSM
渋谷(東急)??それとも新宿(小田急)???

20180403DSCN8677須坂駅SM
右から二つ目が成田エクスプレス。乗ったことあるかも

再びA36ボナンザで八尾へ

桶川 → RJOY 1435-1635 (2+00) BE-A36

Kさんの50時間点検のお供に再び八尾へ行ってきました。
今回は往路のみです。先週のようなダイレクトコースで行
けるかと思い離陸。上昇したらクリアーになると思いきや
逆光なのともやもやなので、ずっと真っ白です。向かい風
もあるので上昇はあきらめて8,500ftにして甲府盆地の南
縁をかすめ、やや南寄りのコースにして地形の低いところ
から渥美半島へ抜けます。セントレアPCAの上限6,000ftの
エリアを越えてから降下開始。
吉野あたりも桜の最盛期のようでした。
GPSの記録では平均時速は127KT。向かい風は20KT位
でしょうか。

Kさんお誘い頂きありがとうございました。

20180401DSCN8656JA3576RJOYSM
八尾につきました

20180401DSC_0405JA3576RJOYSM
Kさんはすぐ整備も兼ねてローカルフライト

20180401DSCN8658ソカタ2機SM
ソカタ2機



RJOY 010800Z 28006KT 250V310 9999 FEW050 SCT///
20/10 Q1017
RJOY 010700Z 27008KT 230V310 9999 FEW045 21/11
Q1017
RJOY 010600Z 25007KT 200V290 9999 FEW045 21/10
Q1017
RJOY 010500Z 26009KT 190V280 9999 FEW040 22/10
Q1017

RJGG 010700Z 17010KT 9999 FEW030 BKN/// 18/12
Q1016 NOSIG
RJGG 010630Z 17010KT 9999 FEW025 BKN/// 18/12
Q1016 NOSIG
RJGG 010600Z 18008KT 9999 FEW025 BKN/// 17/12
Q1016 NOSIG
RJGG 010530Z 17009KT 9999 FEW025 BKN/// 17/12
Q1017 NOSIG 

『日本航空機全集2018』

『日本航空機全集』が出版されました
新たに掲載されたのはMさんのPA-28R-201です。
KさんのA36も無事採用されました。

20180329DSCN8647航空機年鑑SM
2019年もがんばります

桜-その2-

出先のそこここで桜に出会えるがいいです。
仕事なんて休んでこのまま散歩に出かけたいです。

20180329DSCN8638大崎桜SM
散った花びらで川面も色づきます

20180329DSCN8644大崎桜SM
桜のトンネル

20180330DSCN8648桜散るSM
花吹雪

開花宣言後に雪が降ってやきもき。
でもちゃんと満開になってくれました。

20180325DSC_0245国立桜SM
昔は滑走路だったこともある国立の大学通り

20180325DSC_0318国立桜SM
定番の菜の花と桜

20180325DSC_03791公園桜SM
桜と月

A36ボナンザで八尾へ

桶川 → RJOY 1015-1205 (1+50) BE-A36
RJOY → 桶川  1245-1425 (1+40) BE-A36

近々整備のため八尾に飛んでいく練習をするという
Kさんにお誘いいただいて飛んできました。
往路は桶川を離陸後どんどん上昇。オントップ飛行で
甲府の南側セントレア上空、亀山と経てほぼダイレクト
コースで行けました。八尾への進入は国分経由でした。

復路も同じコースで行くつもりで9,500ftへ上昇、雲よけ
で短時間10,500ftに上がります。雲が増えていてそのま
ま11,500ftで巡航する訳にもいかずコースを変更、富士
山の南側を通り、沼津、相模原を通りました。

追い風が25KT位あって対地速度170KTの気持ち良い
飛行だったのに、桶川でパラシュートジャンプに引っ掛
かり10分ロスしました。

Kさんありがとうございました。

20180324P1015662JA3576_10500ftSM
甲府盆地からセントレアまで10,500ftを巡航

20180324DSC_0223四日市SM
画面中央やや右が四日市駅です

20180324P1015665JA3576RJOYSM
八尾のR/W27ファイナル

20180324DSCN8629JA3576+JA3854SM
隣にTさんが乗ってきたJA3854が来ました

20180324DSCN8627JA201DSM
4月から運休が決まっている第一航空のツインオッター


RJOY 240400Z 26010KT 210V290 9999 FEW035 BKN///
15/01 Q1020
RJOY 240300Z 27009KT 9999 FEW035 BKN/// 14/M01
Q1021
RJOY 240200Z 24005KT 180V290 9999 FEW040 BKN///
13/01 Q1022
RJOY 240100Z VRB01KT CAVOK 12/M01 Q1022




不思議な雲と桜

駅までの通勤路で不思議な雲を見かけました。
乳房雲になりかけにも見えます。
そして土曜日に開花宣言された東京の桜。駅から
会社までの道でも開花した桜がちらほら見えました。

20180319DSCN8618乳房雲のなりかけ?SM
雨が降りそうです

20180319DSCN8621浜松町桜開花SM
背景が曇り空ではいまいち映えません
記事検索
月別アーカイブ
プロフィール

soranokousa

タグクラウド
QRコード
QRコード
  • ライブドアブログ